Caroni Plain — VREQ2 — position and weather

sailwx.info

Track history (hours):
 
Tides and Currents Weather Stations Pressure Air Temp Water Temp Dewpoint Dewpoint Depression Visibility Wind Speed Wind Dir Waves Ship Positions

Caroni Plain

Last reported at 2017-Nov-01 01:38 UTC. Time now 2017-Nov-18 06:13 UTC.
Position N 32°06' W 081°07'.
Warning: this ship's position is 17 days out of date.

Length 186 m; draft 7.5 m.

Type: Ship (hazmat cat B). MMSI: 477163900.

Date/timePositionNaut miles runAvg speedWind from/ knotsBaromVisibWave heightAir tempDewpointWater temp
2017-Nov-01 01:38N 32°06' W 081°07'0 0.0
2017-Nov-01 01:26N 32°06' W 081°07'0 0.0
2017-Nov-01 00:56N 32°06' W 081°07'0 0.0
2017-Nov-01 00:26N 32°06' W 081°07'0 0.0
2017-Oct-31 23:56N 32°06' W 081°07'0 0.0
2017-Oct-31 23:20N 32°06' W 081°07'0 0.0
2017-Oct-31 22:56N 32°06' W 081°07'0 0.0
2017-Oct-31 22:14N 32°06' W 081°07'0 0.0
2017-Oct-31 21:56N 32°06' W 081°07'0 0.0
2017-Oct-31 21:14N 32°06' W 081°07'0 0.0
2017-Oct-31 20:50N 32°06' W 081°07'0 0.0
2017-Oct-31 20:26N 32°06' W 081°07'0 0.0
2017-Oct-31 19:56N 32°06' W 081°07'0 0.0
2017-Oct-31 19:20N 32°06' W 081°07'0 0.0
2017-Oct-31 18:56N 32°06' W 081°07'0 0.0
2017-Oct-31 18:26N 32°06' W 081°07'0 0.0
2017-Oct-31 17:56N 32°06' W 081°07'0 0.0
2017-Oct-31 17:26N 32°06' W 081°07'0 0.0
2017-Oct-31 16:50N 32°06' W 081°07'0 0.0
2017-Oct-31 16:26N 32°06' W 081°07'0 0.0
2017-Oct-31 15:50N 32°06' W 081°07'0 0.0
2017-Oct-31 15:26N 32°06' W 081°07'0 0.0
2017-Oct-31 14:56N 32°06' W 081°07'0 0.0
2017-Oct-31 14:26N 32°06' W 081°07'0 0.0
2017-Oct-31 13:56N 32°06' W 081°07'0 0.0
2017-Oct-31 13:20N 32°06' W 081°07'0 0.0
2017-Oct-31 13:00N 32°06' W 081°07'3 5.4
2017-Oct-31 12:30N 32°05' W 081°04'4 8.0
2017-Oct-31 12:00N 32°05' W 080°59'510.3
2017-Oct-31 11:30N 32°02' W 080°54'510.9
2017-Oct-31 11:00N 32°01' W 080°48'612.5
2017-Oct-31 10:30N 31°58' W 080°42'5 9.6
2017-Oct-31 10:00N 31°57' W 080°36'612.3
2017-Oct-31 09:30N 31°59' W 080°30'4 7.4
2017-Oct-31 08:59N 32°01' W 080°26'0 0.6
2017-Oct-31 08:30N 32°01' W 080°25'510.4
2017-Oct-31 08:00N 32°03' W 080°20'713.2
2017-Oct-31 07:30N 32°05' W 080°12'17011.5
2017-Oct-30 16:46N 34°13' W 077°57'1 0.0
2017-Oct-29 16:48N 34°13' W 077°57'0 1.4
2017-Oct-29 16:30N 34°13' W 077°57'48312.0
2017-Oct-28 00:16N 26°17' W 079°34'414.6
2017-Oct-28 00:00N 26°13' W 079°35'714.5
2017-Oct-27 23:30N 26°06' W 079°35'714.7
2017-Oct-27 23:00N 25°59' W 079°35'715.0
2017-Oct-27 22:30N 25°51' W 079°35'815.1
2017-Oct-27 22:00N 25°44' W 079°36'815.1
2017-Oct-27 21:30N 25°36' W 079°38'  
2017-Oct-25 10:58N 29°56' W 090°22'  
Track history (hours):
 
Tides and Currents Weather Stations Pressure Air Temp Water Temp Dewpoint Dewpoint Depression Visibility Wind Speed Wind Dir Waves Ship Positions

Caroni Plain

Last reported at 2017-Nov-01 01:38 UTC. Time now 2017-Nov-18 06:13 UTC.
Position N 32°06' W 081°07'.
Warning: this ship's position is 17 days out of date.

Length 186 m; draft 7.5 m.

Type: Ship (hazmat cat B). MMSI: 477163900.

Date/timePositionNaut miles runAvg speedWind from/ knotsBaromVisibWave heightAir tempDewpointWater temp
2017-Nov-01 01:38N 32°06' W 081°07'0 0.0
2017-Nov-01 01:26N 32°06' W 081°07'0 0.0
2017-Nov-01 00:56N 32°06' W 081°07'0 0.0
2017-Nov-01 00:26N 32°06' W 081°07'0 0.0
2017-Oct-31 23:56N 32°06' W 081°07'0 0.0
2017-Oct-31 23:20N 32°06' W 081°07'0 0.0
2017-Oct-31 22:56N 32°06' W 081°07'0 0.0
2017-Oct-31 22:14N 32°06' W 081°07'0 0.0
2017-Oct-31 21:56N 32°06' W 081°07'0 0.0
2017-Oct-31 21:14N 32°06' W 081°07'0 0.0
2017-Oct-31 20:50N 32°06' W 081°07'0 0.0
2017-Oct-31 20:26N 32°06' W 081°07'0 0.0
2017-Oct-31 19:56N 32°06' W 081°07'0 0.0
2017-Oct-31 19:20N 32°06' W 081°07'0 0.0
2017-Oct-31 18:56N 32°06' W 081°07'0 0.0
2017-Oct-31 18:26N 32°06' W 081°07'0 0.0
2017-Oct-31 17:56N 32°06' W 081°07'0 0.0
2017-Oct-31 17:26N 32°06' W 081°07'0 0.0
2017-Oct-31 16:50N 32°06' W 081°07'0 0.0
2017-Oct-31 16:26N 32°06' W 081°07'0 0.0
2017-Oct-31 15:50N 32°06' W 081°07'0 0.0
2017-Oct-31 15:26N 32°06' W 081°07'0 0.0
2017-Oct-31 14:56N 32°06' W 081°07'0 0.0
2017-Oct-31 14:26N 32°06' W 081°07'0 0.0
2017-Oct-31 13:56N 32°06' W 081°07'0 0.0
2017-Oct-31 13:20N 32°06' W 081°07'0 0.0
2017-Oct-31 13:00N 32°06' W 081°07'3 5.4
2017-Oct-31 12:30N 32°05' W 081°04'4 8.0
2017-Oct-31 12:00N 32°05' W 080°59'510.3
2017-Oct-31 11:30N 32°02' W 080°54'510.9
2017-Oct-31 11:00N 32°01' W 080°48'612.5
2017-Oct-31 10:30N 31°58' W 080°42'5 9.6
2017-Oct-31 10:00N 31°57' W 080°36'612.3
2017-Oct-31 09:30N 31°59' W 080°30'4 7.4
2017-Oct-31 08:59N 32°01' W 080°26'0 0.6
2017-Oct-31 08:30N 32°01' W 080°25'510.4
2017-Oct-31 08:00N 32°03' W 080°20'713.2
2017-Oct-31 07:30N 32°05' W 080°12'17011.5
2017-Oct-30 16:46N 34°13' W 077°57'1 0.0
2017-Oct-29 16:48N 34°13' W 077°57'0 1.4
2017-Oct-29 16:30N 34°13' W 077°57'48312.0
2017-Oct-28 00:16N 26°17' W 079°34'414.6
2017-Oct-28 00:00N 26°13' W 079°35'714.5
2017-Oct-27 23:30N 26°06' W 079°35'714.7
2017-Oct-27 23:00N 25°59' W 079°35'715.0
2017-Oct-27 22:30N 25°51' W 079°35'815.1
2017-Oct-27 22:00N 25°44' W 079°36'815.1
2017-Oct-27 21:30N 25°36' W 079°38'  
2017-Oct-25 10:58N 29°56' W 090°22'  

Dump ship's entire track history